Time;durP1;ratioP1;P1;durP2;ratioP2;P2;SDS_P1;SDS_P2;PMS_P1;PMS_P2;Temp;Humidity;BMP_temperature;BMP_pressure;BME280_temperature;BME280_humidity;BME280_pressure;Samples;Min_cycle;Max_cycle;Signal;HPM_P1;HPM_P2
2023/07/15 00:01:30;;;;;;;6.30;2.70;;;;;;;20.70;50.58;100300.88;5053612;28;20110;-82
2023/07/15 00:03:55;;;;;;;4.68;2.97;;;;;;;20.77;50.66;100308.81;5005973;28;20038;-82
2023/07/15 00:06:21;;;;;;;7.47;3.00;;;;;;;20.73;50.77;100306.59;5043019;28;20030;-82
2023/07/15 00:08:47;;;;;;;4.47;2.92;;;;;;;20.73;51.03;100306.59;5061190;28;20030;-82
2023/07/15 00:11:15;;;;;;;6.05;3.00;;;;;;;20.59;51.19;100303.63;5090229;23;20047;-82
2023/07/15 00:13:40;;;;;;;3.90;2.72;;;;;;;20.54;51.49;100300.09;5094231;27;20433;-82
2023/07/15 00:16:08;;;;;;;4.53;3.20;;;;;;;20.46;51.52;100304.19;5134118;27;20035;-82
2023/07/15 00:18:34;;;;;;;3.00;2.70;;;;;;;20.50;51.01;100296.25;5126101;27;20027;-82
2023/07/15 00:20:59;;;;;;;4.95;3.13;;;;;;;20.51;51.55;100292.44;5124022;27;20489;-82
2023/07/15 00:23:25;;;;;;;7.85;3.13;;;;;;;20.45;51.46;100291.63;5107357;28;20032;-82
2023/07/15 00:25:51;;;;;;;6.53;2.97;;;;;;;20.39;51.75;100288.09;5127707;27;20110;-82
2023/07/15 00:28:24;;;;;;;4.40;3.00;;;;;;;20.38;51.61;100286.44;5127959;27;20158;-82
2023/07/15 00:30:50;;;;;;;6.10;2.92;;;;;;;20.39;51.35;100284.53;5132664;27;20461;-82
2023/07/15 00:33:16;;;;;;;4.32;2.70;;;;;;;20.38;51.71;100286.44;5099628;27;20023;-81
2023/07/15 00:35:42;;;;;;;4.78;2.90;;;;;;;20.37;51.77;100282.06;5121648;27;20027;-82
2023/07/15 00:38:08;;;;;;;3.72;2.97;;;;;;;;;;5127450;27;20031;-82
2023/07/15 00:40:39;;;;;;;4.33;3.27;;;;;;;20.49;51.02;100283.69;5130003;27;20034;-82
2023/07/15 00:43:42;;;;;;;5.20;2.80;;;;;;;20.44;50.96;100282.63;5132046;27;20296;-82
2023/07/15 00:46:26;;;;;;;4.00;2.67;;;;;;;20.53;50.75;100282.03;5123022;27;20068;-82
2023/07/15 00:49:25;;;;;;;4.30;2.88;;;;;;;20.55;51.00;100282.56;5121912;27;20066;-81
2023/07/15 00:52:00;;;;;;;3.95;2.97;;;;;;;20.55;51.20;100279.84;5117981;27;20031;-82
2023/07/15 00:54:25;;;;;;;4.53;2.95;;;;;;;20.57;50.89;100285.84;5108220;27;20038;-82
2023/07/15 00:56:51;;;;;;;6.40;2.90;;;;;;;20.55;50.89;100283.41;5118424;27;20031;-82
2023/07/15 00:59:16;;;;;;;6.03;2.83;;;;;;;20.51;50.56;100270.56;5115978;27;20039;-82
2023/07/15 01:01:49;;;;;;;5.57;3.15;;;;;;;20.48;51.27;100277.41;5127513;27;20046;-82
2023/07/15 01:04:20;;;;;;;4.32;2.78;;;;;;;20.47;51.07;100269.50;5128633;27;20023;-82
2023/07/15 01:06:46;;;;;;;4.13;3.00;;;;;;;20.52;50.79;100275.75;5120941;27;20412;-82
2023/07/15 01:09:12;;;;;;;4.82;2.75;;;;;;;20.43;51.01;100264.56;5133494;27;20039;-82
2023/07/15 01:11:39;;;;;;;3.95;2.70;;;;;;;20.39;51.31;100268.97;5130429;27;20035;-82
2023/07/15 01:14:05;;;;;;;4.68;2.97;;;;;;;20.40;50.70;100273.34;5129484;27;20107;-82
2023/07/15 01:16:34;;;;;;;3.28;2.72;;;;;;;20.38;51.02;100261.84;5126116;27;20016;-82
2023/07/15 01:19:00;;;;;;;3.97;2.97;;;;;;;20.42;51.17;100273.03;5125667;27;20031;-82
2023/07/15 01:21:29;;;;;;;4.28;2.78;;;;;;;20.42;51.02;100265.69;5130058;27;20128;-82
2023/07/15 01:23:54;;;;;;;5.10;2.60;;;;;;;20.45;50.59;100261.56;5127482;27;20023;-82
2023/07/15 01:26:20;;;;;;;4.63;2.60;;;;;;;20.52;49.99;100266.72;5125530;27;20015;-81
2023/07/15 01:28:49;;;;;;;5.35;2.97;;;;;;;20.57;50.27;100264.78;5126775;27;20041;-81
2023/07/15 01:31:14;;;;;;;4.93;2.72;;;;;;;20.66;49.77;100262.28;5131921;27;20039;-82
2023/07/15 01:33:40;;;;;;;5.38;2.95;;;;;;;20.77;48.92;100265.84;5115361;27;20049;-80
2023/07/15 01:36:05;;;;;;;5.40;2.83;;;;;;;20.89;48.27;100260.88;5134965;27;20055;-82
2023/07/15 01:38:31;;;;;;;4.55;2.75;;;;;;;20.96;48.81;100260.56;5133471;27;20422;-82
2023/07/15 01:40:57;;;;;;;2.75;2.55;;;;;;;21.04;48.34;100257.22;5134284;27;20034;-82
2023/07/15 01:43:22;;;;;;;3.65;2.72;;;;;;;21.09;47.73;100258.31;5133828;27;20097;-82
2023/07/15 01:45:47;;;;;;;3.60;2.60;;;;;;;21.13;47.68;100260.19;5133953;27;20031;-82
2023/07/15 01:48:13;;;;;;;2.88;2.20;;;;;;;21.28;47.34;100259.28;5134341;27;20042;-82
2023/07/15 01:50:39;;;;;;;4.63;2.75;;;;;;;21.38;46.80;100265.78;5144540;27;20007;-81
2023/07/15 01:53:05;;;;;;;3.47;2.50;;;;;;;21.42;46.86;100255.91;5156668;27;20098;-81
2023/07/15 01:55:30;;;;;;;4.05;2.67;;;;;;;21.41;47.18;100259.75;5146373;27;20031;-81
2023/07/15 01:57:55;;;;;;;3.13;2.50;;;;;;;21.49;46.47;100259.16;5130538;27;20374;-81
2023/07/15 02:00:21;;;;;;;9.18;2.83;;;;;;;21.51;46.31;100260.50;5135316;27;20543;-82
2023/07/15 02:02:50;;;;;;;3.95;2.50;;;;;;;21.49;46.75;100267.38;5135808;27;20088;-82
2023/07/15 02:05:15;;;;;;;2.97;2.65;;;;;;;21.44;46.91;100253.72;5126413;27;20027;-82
2023/07/15 02:07:41;;;;;;;4.13;2.55;;;;;;;21.42;46.84;100267.69;5112786;27;20049;-82
2023/07/15 02:10:07;;;;;;;4.00;2.40;;;;;;;21.35;47.15;100257.06;5133737;27;20100;-82
2023/07/15 02:12:32;;;;;;;2.60;2.40;;;;;;;21.31;47.30;100257.91;5131493;27;20623;-82
2023/07/15 02:14:58;;;;;;;4.22;2.40;;;;;;;21.25;47.41;100261.78;5131850;27;20394;-82
2023/07/15 02:17:23;;;;;;;3.17;2.53;;;;;;;21.22;47.82;100252.19;5127059;27;20023;-82
2023/07/15 02:19:49;;;;;;;3.83;2.75;;;;;;;21.14;48.14;100250.06;5126490;27;20026;-82
2023/07/15 02:22:14;;;;;;;4.65;2.53;;;;;;;21.00;48.30;100256.16;5126287;27;20596;-82
2023/07/15 02:24:40;;;;;;;4.63;2.40;;;;;;;20.98;48.68;100246.59;5124278;27;20519;-82
2023/07/15 02:27:05;;;;;;;3.20;2.50;;;;;;;20.92;48.90;100248.53;5124904;27;20024;-82
2023/07/15 02:29:31;;;;;;;5.47;2.83;;;;;;;20.82;49.28;100234.94;5125234;27;20023;-82
2023/07/15 02:31:57;;;;;;;4.63;2.50;;;;;;;20.81;49.39;100241.50;5128996;27;20023;-82
2023/07/15 02:34:27;;;;;;;5.55;2.67;;;;;;;20.75;49.08;100243.38;5129878;27;20034;-81
2023/07/15 02:36:52;;;;;;;4.10;2.70;;;;;;;20.65;49.78;100233.31;5117529;27;20043;-82
2023/07/15 02:39:18;;;;;;;4.15;2.47;;;;;;;20.63;49.73;100234.69;5125982;27;20075;-82
2023/07/15 02:41:44;;;;;;;5.93;2.58;;;;;;;20.56;50.14;100235.81;5127497;27;20042;-82
2023/07/15 02:44:09;;;;;;;6.25;2.95;;;;;;;20.49;50.39;100239.94;5124672;27;20042;-82
2023/07/15 02:46:35;;;;;;;4.35;2.75;;;;;;;20.44;50.21;100244.34;5126655;27;20016;-82
2023/07/15 02:49:01;;;;;;;5.45;2.53;;;;;;;20.44;50.24;100238.88;5112203;27;20088;-82
2023/07/15 02:51:28;;;;;;;3.92;2.70;;;;;;;20.39;50.57;100238.06;5131547;27;20023;-82
2023/07/15 02:53:54;;;;;;;7.22;2.83;;;;;;;20.36;50.65;100242.16;5128901;27;20030;-82
2023/07/15 02:56:19;;;;;;;6.70;2.35;;;;;;;20.29;50.58;100236.19;5126461;27;20028;-82
2023/07/15 02:58:44;;;;;;;4.05;2.70;;;;;;;20.27;50.77;100243.84;5127446;27;20043;-82
2023/07/15 03:01:10;;;;;;;4.57;2.88;;;;;;;20.29;50.48;100247.13;5132870;27;20026;-82
2023/07/15 03:03:37;;;;;;;3.90;2.30;;;;;;;20.28;50.35;100242.75;5128790;27;20514;-78
2023/07/15 03:06:02;;;;;;;3.40;2.40;;;;;;;20.24;51.14;100244.41;5130546;27;20443;-78
2023/07/15 03:08:29;;;;;;;3.67;2.80;;;;;;;20.24;50.95;100258.06;5113404;27;20033;-79
2023/07/15 03:10:54;;;;;;;4.50;2.45;;;;;;;20.19;51.39;100258.91;5127400;27;20053;-78
2023/07/15 03:13:21;;;;;;;4.00;2.60;;;;;;;20.12;51.12;100253.69;5128338;27;20027;-79
2023/07/15 03:15:46;;;;;;;2.97;2.63;;;;;;;20.18;50.64;100256.41;5125863;27;20039;-78
2023/07/15 03:18:11;;;;;;;5.13;2.67;;;;;;;20.18;50.30;100254.53;5116439;27;20084;-79
2023/07/15 03:20:37;;;;;;;3.38;2.70;;;;;;;20.18;50.44;100257.25;5129027;27;20367;-79
2023/07/15 03:23:03;;;;;;;2.97;2.60;;;;;;;20.22;50.20;100265.72;5131382;27;20027;-78
2023/07/15 03:25:29;;;;;;;5.70;2.60;;;;;;;20.24;50.47;100260.78;5120999;27;20028;-79
2023/07/15 03:27:54;;;;;;;4.68;2.40;;;;;;;20.24;50.39;100264.34;5129374;27;20039;-79
2023/07/15 03:30:20;;;;;;;2.95;2.38;;;;;;;20.30;50.24;100271.44;5130366;27;20027;-79
2023/07/15 03:32:48;;;;;;;4.45;2.58;;;;;;;20.28;50.32;100276.34;5131115;27;20080;-78
2023/07/15 03:35:16;;;;;;;3.22;2.33;;;;;;;20.27;50.22;100271.19;5133299;27;20031;-79
2023/07/15 03:37:42;;;;;;;4.82;2.47;;;;;;;20.27;50.52;100271.19;5123227;28;20027;-79
2023/07/15 03:40:10;;;;;;;3.95;2.50;;;;;;;20.26;50.23;100270.34;5132518;28;20043;-79
2023/07/15 03:42:35;;;;;;;3.30;2.45;;;;;;;20.26;50.46;100272.28;5133483;28;20053;-78
2023/07/15 03:45:04;;;;;;;4.82;2.50;;;;;;;20.30;49.97;100273.34;5149887;28;20011;-78
2023/07/15 03:47:30;;;;;;;5.38;2.63;;;;;;;20.31;49.95;100274.97;5129535;28;20024;-79
2023/07/15 03:49:58;;;;;;;3.88;2.50;;;;;;;20.32;50.07;100273.06;5120784;27;20474;-79
2023/07/15 03:52:24;;;;;;;5.18;2.80;;;;;;;20.28;50.43;100273.63;5124519;27;20038;-79
2023/07/15 03:54:49;;;;;;;3.70;2.20;;;;;;;20.29;50.22;100260.78;5128122;27;20031;-79
2023/07/15 03:57:14;;;;;;;6.57;2.30;;;;;;;20.28;50.19;100268.16;5137755;27;20064;-78
2023/07/15 03:59:40;;;;;;;4.32;2.60;;;;;;;20.27;50.10;100269.25;5130436;27;20026;-79
2023/07/15 04:02:06;;;;;;;4.35;2.50;;;;;;;20.25;50.28;100263.25;5134016;27;20030;-79
2023/07/15 04:04:31;;;;;;;3.78;2.50;;;;;;;20.26;50.12;100269.53;5128926;27;20042;-78
2023/07/15 04:07:00;;;;;;;3.85;2.50;;;;;;;20.28;50.43;100268.16;5135410;27;20037;-78
2023/07/15 04:09:26;;;;;;;3.47;2.60;;;;;;;20.31;50.05;100266.78;5131400;27;20027;-78
2023/07/15 04:11:51;;;;;;;5.10;2.40;;;;;;;20.29;50.58;100272.53;5133566;27;20314;-78
2023/07/15 04:14:19;;;;;;;3.53;2.50;;;;;;;20.36;50.42;100271.44;5128499;27;20527;-78
2023/07/15 04:16:45;;;;;;;3.00;2.40;;;;;;;20.36;50.67;100266.78;5130965;27;20065;-78
2023/07/15 04:19:10;;;;;;;7.07;2.38;;;;;;;20.37;50.46;100271.16;5125531;27;20027;-78
2023/07/15 04:21:36;;;;;;;4.72;2.67;;;;;;;20.37;51.03;100270.34;5128289;27;20466;-78
2023/07/15 04:24:03;;;;;;;4.47;2.60;;;;;;;20.36;50.33;100272.25;5132524;27;20030;-78
2023/07/15 04:26:28;;;;;;;3.88;2.85;;;;;;;20.38;50.88;100277.44;5124138;27;20081;-78
2023/07/15 04:28:56;;;;;;;2.90;2.40;;;;;;;20.36;50.96;100274.97;5124052;27;20031;-78
2023/07/15 04:31:22;;;;;;;9.32;2.63;;;;;;;20.33;51.34;100267.31;5124751;27;20039;-78
2023/07/15 04:33:49;;;;;;;3.53;2.40;;;;;;;20.59;51.31;100275.47;5133517;27;20023;-78
2023/07/15 04:36:15;;;;;;;5.78;2.70;;;;;;;20.79;50.91;100277.31;5131136;27;20019;-78
2023/07/15 04:38:40;;;;;;;3.65;2.72;;;;;;;21.38;48.93;100274.00;5111937;27;20027;-78
2023/07/15 04:41:06;;;;;;;4.25;2.70;;;;;;;22.15;48.15;100280.84;5132430;27;20051;-78
2023/07/15 04:43:31;;;;;;;3.45;2.40;;;;;;;22.84;46.02;100277.91;5133783;27;20050;-78
2023/07/15 04:45:57;;;;;;;5.47;2.10;;;;;;;23.40;43.81;100281.81;5129772;27;20016;-78
2023/07/15 04:48:23;;;;;;;3.88;2.05;;;;;;;23.27;44.12;100280.63;5116353;27;20019;-78
2023/07/15 04:50:48;;;;;;;5.85;2.60;;;;;;;22.70;45.61;100272.31;5120744;27;20030;-78
2023/07/15 04:53:14;;;;;;;2.88;2.20;;;;;;;22.49;46.25;100278.03;5132364;27;20084;-78
2023/07/15 04:55:40;;;;;;;2.72;2.40;;;;;;;22.51;46.04;100274.97;5133930;27;20520;-79
2023/07/15 04:58:06;;;;;;;5.00;2.40;;;;;;;22.38;46.62;100281.97;5126974;27;20030;-78
2023/07/15 05:00:31;;;;;;;4.05;2.28;;;;;;;22.11;47.99;100275.91;5129406;27;20015;-78
2023/07/15 05:02:56;;;;;;;5.88;2.22;;;;;;;21.87;48.97;100284.09;5130537;27;20489;-78
2023/07/15 05:05:22;;;;;;;6.93;2.50;;;;;;;21.70;49.32;100286.44;5129277;27;20039;-78
2023/07/15 05:07:50;;;;;;;3.45;2.53;;;;;;;21.74;49.75;100293.78;5116030;27;20023;-79
2023/07/15 05:10:16;;;;;;;3.78;2.50;;;;;;;22.23;48.96;100283.75;5131605;27;20046;-78
2023/07/15 05:12:41;;;;;;;4.90;2.60;;;;;;;23.45;45.91;100286.41;5128121;27;20039;-79
2023/07/15 05:15:07;;;;;;;4.15;2.55;;;;;;;24.65;42.87;100286.81;5129687;27;20432;-78
2023/07/15 05:17:33;;;;;;;3.67;2.38;;;;;;;25.57;40.40;100296.19;5126328;27;20420;-78
2023/07/15 05:19:58;;;;;;;3.55;2.28;;;;;;;26.08;39.15;100294.09;5128377;27;20027;-79
2023/07/15 05:22:24;;;;;;;3.75;2.30;;;;;;;26.73;38.04;100296.53;5131426;27;20030;-79
2023/07/15 05:24:49;;;;;;;6.55;2.60;;;;;;;27.04;37.79;100310.25;5134271;27;20356;-79
2023/07/15 05:27:14;;;;;;;4.03;2.10;;;;;;;27.34;36.86;100310.47;5127602;27;20083;-79
2023/07/15 05:29:40;;;;;;;2.90;2.00;;;;;;;27.56;35.78;100300.41;5130047;27;20020;-79
2023/07/15 05:32:06;;;;;;;4.32;2.20;;;;;;;27.34;36.32;100301.34;5129297;27;21645;-78
2023/07/15 05:34:31;;;;;;;3.83;2.38;;;;;;;27.74;35.41;100308.69;5143701;27;20083;-79
2023/07/15 05:36:57;;;;;;;2.55;2.00;;;;;;;27.51;37.47;100304.16;5149047;27;20351;-82
2023/07/15 05:39:23;;;;;;;5.57;2.58;;;;;;;28.11;35.25;100303.59;5136442;27;20070;-84
2023/07/15 05:41:49;;;;;;;4.50;2.38;;;;;;;28.10;35.27;100308.34;5137780;27;20031;-85
2023/07/15 05:44:15;;;;;;;2.92;2.10;;;;;;;28.18;35.24;100306.69;5127591;27;20045;-83
2023/07/15 05:46:40;;;;;;;4.45;2.10;;;;;;;28.07;35.48;100308.13;5122445;27;20031;-84
2023/07/15 05:49:06;;;;;;;4.63;2.30;;;;;;;28.48;35.30;100306.72;5131575;27;20042;-82
2023/07/15 05:51:31;;;;;;;3.08;1.85;;;;;;;28.68;34.09;100315.44;5133783;27;20050;-82
2023/07/15 05:53:57;;;;;;;4.65;2.20;;;;;;;28.70;33.94;100297.34;5133605;27;20048;-82
2023/07/15 05:56:23;;;;;;;5.82;2.08;;;;;;;29.10;33.75;100306.44;5126581;27;20643;-83
2023/07/15 05:58:49;;;;;;;2.97;2.20;;;;;;;29.00;34.66;100308.47;5119772;27;20464;-82
2023/07/15 06:01:14;;;;;;;6.25;2.35;;;;;;;29.26;34.10;100306.66;5134746;27;20051;-83
2023/07/15 06:03:40;;;;;;;3.40;2.25;;;;;;;29.19;34.18;100299.66;5127173;27;20023;-83
2023/07/15 06:06:05;;;;;;;4.20;2.38;;;;;;;29.46;34.01;100303.09;5121166;27;20028;-83
2023/07/15 06:08:33;;;;;;;3.22;2.28;;;;;;;29.37;33.50;100302.34;5125406;27;20042;-83
2023/07/15 06:10:59;;;;;;;4.63;2.10;;;;;;;29.88;33.30;100299.44;5123974;27;20595;-81
2023/07/15 06:13:24;;;;;;;3.53;2.22;;;;;;;30.03;32.50;100306.31;5123522;27;20157;-81
2023/07/15 06:15:50;;;;;;;3.10;2.00;;;;;;;30.20;32.35;100304.50;5114719;27;20031;-81
2023/07/15 06:18:19;;;;;;;3.58;2.10;;;;;;;30.13;33.19;100309.81;5123089;27;20094;-81
2023/07/15 06:20:46;;;;;;;3.30;2.50;;;;;;;30.50;31.88;100301.53;5129973;27;20019;-82
2023/07/15 06:23:11;;;;;;;3.50;2.10;;;;;;;30.28;32.35;100309.16;5128465;27;20023;-82
2023/07/15 06:25:37;;;;;;;5.88;2.30;;;;;;;30.40;32.10;100303.59;5128188;27;20370;-82
2023/07/15 06:28:03;;;;;;;4.07;2.33;;;;;;;30.87;31.52;100312.69;5117912;27;20467;-81
2023/07/15 06:30:28;;;;;;;6.82;2.22;;;;;;;30.53;32.05;100311.97;5128018;27;20037;-80
2023/07/15 06:32:54;;;;;;;3.13;2.45;;;;;;;30.67;31.67;100318.00;5131081;27;20019;-80
2023/07/15 06:35:20;;;;;;;4.80;2.33;;;;;;;30.98;32.17;100322.16;5113046;27;20497;-77
2023/07/15 06:37:46;;;;;;;4.30;3.40;;;;;;;31.72;31.42;100337.09;5121057;27;20648;-77
2023/07/15 06:40:14;;;;;;;4.57;2.40;;;;;;;32.39;29.77;100319.00;5122521;27;20244;-79
2023/07/15 06:42:43;;;;;;;3.25;2.00;;;;;;;33.03;29.15;100316.94;5120475;27;20391;-77
2023/07/15 06:45:09;;;;;;;3.15;2.00;;;;;;;33.14;28.27;100319.16;5127542;27;20096;-77
2023/07/15 06:47:34;;;;;;;3.97;2.05;;;;;;;32.85;29.15;100322.13;5127597;27;20110;-77
2023/07/15 06:49:59;;;;;;;3.85;2.08;;;;;;;33.21;28.88;100316.53;5123472;27;20026;-78
2023/07/15 06:52:25;;;;;;;4.85;2.10;;;;;;;33.49;28.07;100318.34;5130414;27;20463;-77
2023/07/15 06:54:53;;;;;;;4.43;2.20;;;;;;;33.60;27.75;100316.56;5123490;27;20117;-77
2023/07/15 06:57:18;;;;;;;4.03;1.90;;;;;;;34.20;27.65;100323.72;5130947;27;20070;-77
2023/07/15 06:59:44;;;;;;;3.80;2.10;;;;;;;34.48;26.06;100310.63;5121710;27;20027;-76
2023/07/15 07:02:09;;;;;;;3.60;2.05;;;;;;;34.23;26.93;100311.78;5122228;27;20023;-78
2023/07/15 07:04:35;;;;;;;4.95;2.30;;;;;;;34.46;26.66;100319.38;5123873;27;20045;-78
2023/07/15 07:07:00;;;;;;;3.65;2.30;;;;;;;34.64;26.96;100327.22;5129858;27;20023;-78
2023/07/15 07:09:26;;;;;;;4.40;2.05;;;;;;;34.81;26.04;100328.69;5129379;27;20015;-78
2023/07/15 07:11:51;;;;;;;2.35;1.92;;;;;;;34.64;26.87;100318.84;5130111;27;20100;-78
2023/07/15 07:14:16;;;;;;;3.20;1.77;;;;;;;33.96;27.88;100320.09;5130475;27;20105;-77
2023/07/15 07:16:42;;;;;;;4.15;2.03;;;;;;;33.09;30.00;100321.06;5118820;27;20467;-80
2023/07/15 07:19:07;;;;;;;3.00;2.13;;;;;;;32.63;29.98;100313.22;5128767;27;20031;-80
2023/07/15 07:21:35;;;;;;;3.00;1.98;;;;;;;31.36;32.01;100320.13;5129402;27;20035;-79
2023/07/15 07:24:02;;;;;;;4.35;1.98;;;;;;;30.01;34.84;100319.72;5123972;27;20055;-76
2023/07/15 07:26:27;;;;;;;2.35;1.90;;;;;;;30.05;34.51;100308.75;5124891;27;20053;-78
2023/07/15 07:28:53;;;;;;;2.25;1.80;;;;;;;28.90;37.03;100317.13;5128076;27;20789;-77
2023/07/15 07:31:18;;;;;;;4.00;2.10;;;;;;;29.90;36.08;100318.50;5123754;27;20025;-79
2023/07/15 07:33:44;;;;;;;3.17;2.08;;;;;;;31.67;31.69;100318.66;5129115;27;20031;-78
2023/07/15 07:36:09;;;;;;;6.47;2.00;;;;;;;31.52;32.26;100311.84;5128638;27;20047;-78
2023/07/15 07:38:35;;;;;;;2.92;2.10;;;;;;;31.63;32.00;100322.47;5127145;28;20379;-79
2023/07/15 07:41:05;;;;;;;3.42;1.90;;;;;;;31.23;32.89;100327.72;5128845;28;20039;-77
2023/07/15 07:43:31;;;;;;;4.22;2.15;;;;;;;30.12;34.23;100324.84;5128540;28;20154;-78
2023/07/15 07:45:56;;;;;;;2.13;1.90;;;;;;;30.29;33.77;100334.94;5129418;28;20050;-77
2023/07/15 07:48:21;;;;;;;4.45;2.10;;;;;;;30.30;33.50;100334.59;5130957;28;20474;-78
2023/07/15 07:50:47;;;;;;;4.63;2.40;;;;;;;29.89;33.92;100323.25;5129870;28;20035;-77
2023/07/15 07:53:12;;;;;;;4.95;2.28;;;;;;;30.84;32.07;100328.06;5128884;28;20486;-78
2023/07/15 07:55:39;;;;;;;5.03;2.40;;;;;;;30.69;32.49;100335.16;5128281;28;20459;-79
2023/07/15 07:58:04;;;;;;;3.63;2.50;;;;;;;30.03;33.85;100336.84;5117990;28;20611;-80
2023/07/15 08:00:30;;;;;;;4.55;2.35;;;;;;;29.47;33.88;100332.44;5123175;28;20502;-78
2023/07/15 08:02:56;;;;;;;2.95;2.30;;;;;;;28.60;35.19;100326.22;5126130;28;20095;-79
2023/07/15 08:05:21;;;;;;;4.25;2.40;;;;;;;28.93;35.48;100338.63;5122799;28;20031;-77
2023/07/15 08:07:47;;;;;;;4.43;2.30;;;;;;;29.27;35.01;100334.03;5128367;28;20509;-77
2023/07/15 08:10:14;;;;;;;2.55;2.13;;;;;;;29.40;35.18;100343.25;5129282;28;20055;-78
2023/07/15 08:12:39;;;;;;;2.88;2.05;;;;;;;30.14;34.29;100350.31;5129196;28;20066;-78
2023/07/15 08:15:05;;;;;;;3.72;2.10;;;;;;;30.48;33.94;100345.50;5128274;28;20019;-78
2023/07/15 08:17:31;;;;;;;2.55;2.10;;;;;;;30.04;34.76;100337.66;5126646;28;20015;-79
2023/07/15 08:19:57;;;;;;;5.07;2.20;;;;;;;30.02;35.43;100343.53;5115846;28;20387;-79
2023/07/15 08:22:22;;;;;;;5.15;2.33;;;;;;;29.32;37.64;100344.09;5127806;28;20027;-78
2023/07/15 08:24:47;;;;;;;4.43;2.30;;;;;;;28.48;39.84;100339.16;5126824;28;20027;-80
2023/07/15 08:27:13;;;;;;;5.20;2.20;;;;;;;28.15;41.18;100340.53;5117158;28;20024;-77
2023/07/15 08:29:38;;;;;;;2.92;2.10;;;;;;;27.58;42.33;100347.09;5115036;28;20042;-77
2023/07/15 08:32:04;;;;;;;2.05;1.83;;;;;;;27.58;43.31;100336.84;5129146;28;20027;-77
2023/07/15 08:34:32;;;;;;;2.80;1.83;;;;;;;27.68;43.75;100346.75;5131117;27;20023;-77
2023/07/15 08:36:57;;;;;;;5.18;2.13;;;;;;;28.08;42.14;100354.84;5128347;27;20027;-79
2023/07/15 08:39:23;;;;;;;3.80;1.70;;;;;;;28.43;42.03;100338.19;5132874;27;20034;-78
2023/07/15 08:41:48;;;;;;;3.38;1.90;;;;;;;28.34;43.10;100355.97;5128219;27;20031;-78
2023/07/15 08:44:16;;;;;;;2.60;1.85;;;;;;;28.16;42.89;100358.78;5113014;27;20454;-78
2023/07/15 08:46:42;;;;;;;3.58;1.83;;;;;;;28.09;43.00;100355.66;5128210;27;20023;-77
2023/07/15 08:49:07;;;;;;;2.85;2.15;;;;;;;28.71;41.59;100365.44;5090846;28;20029;-77
2023/07/15 08:51:36;;;;;;;3.58;2.35;;;;;;;28.07;41.68;100360.69;5128765;27;20035;-78
2023/07/15 08:54:03;;;;;;;2.78;1.80;;;;;;;28.23;42.86;100372.94;5106387;27;20130;-80
2023/07/15 08:56:29;;;;;;;4.97;2.05;;;;;;;28.57;42.12;100360.13;5120643;27;20475;-77
2023/07/15 08:58:56;;;;;;;2.80;2.00;;;;;;;28.52;40.73;100368.63;5128572;27;20023;-77
2023/07/15 09:01:22;;;;;;;2.28;2.05;;;;;;;28.07;42.71;100371.78;5093435;27;20055;-77
2023/07/15 09:03:47;;;;;;;3.10;2.00;;;;;;;27.76;43.04;100376.38;5114259;27;20109;-77
2023/07/15 09:06:14;;;;;;;2.05;1.60;;;;;;;27.71;43.51;100375.72;5132755;27;20062;-77
2023/07/15 09:08:42;;;;;;;2.67;1.98;;;;;;;27.64;43.23;100399.13;5124150;27;20035;-77
2023/07/15 09:11:07;;;;;;;5.18;2.05;;;;;;;27.81;43.12;100394.75;5132324;27;20039;-77
2023/07/15 09:13:34;;;;;;;3.65;1.75;;;;;;;28.57;42.93;100390.59;5118010;27;20082;-77
2023/07/15 09:16:01;;;;;;;2.67;1.83;;;;;;;28.38;42.60;100402.03;5139391;27;20114;-78
2023/07/15 09:18:26;;;;;;;4.40;1.98;;;;;;;27.99;42.96;100409.38;5134668;27;20375;-78
2023/07/15 09:21:06;;;;;;;2.45;1.65;;;;;;;27.30;44.90;100392.41;5132117;27;20465;-77
2023/07/15 09:23:31;;;;;;;3.97;1.80;;;;;;;26.72;46.52;100391.53;5132166;27;20494;-77
2023/07/15 09:25:57;;;;;;;3.15;1.80;;;;;;;26.61;46.47;100394.56;5132722;27;20027;-77
2023/07/15 09:28:23;;;;;;;6.32;1.90;;;;;;;26.68;46.94;100399.63;5091140;28;20043;-76
2023/07/15 09:30:48;;;;;;;2.13;1.73;;;;;;;26.91;45.72;100418.91;5131979;27;20039;-77
2023/07/15 09:33:46;;;;;;;3.17;1.85;;;;;;;26.74;46.12;100425.16;5132531;27;20026;-77
2023/07/15 09:36:11;;;;;;;2.92;1.88;;;;;;;26.49;46.65;100424.69;5078634;27;20032;-77
2023/07/15 09:38:37;;;;;;;4.40;2.00;;;;;;;26.60;47.17;100425.25;5111219;27;20470;-76
2023/07/15 09:41:04;;;;;;;2.50;1.80;;;;;;;26.69;47.26;100428.06;5124728;27;20031;-75
2023/07/15 09:43:46;;;;;;;3.00;2.00;;;;;;;26.80;46.86;100428.63;5110880;27;20058;-75
2023/07/15 09:46:15;;;;;;;2.75;2.00;;;;;;;26.44;47.11;100439.44;5125750;27;20189;-75
2023/07/15 09:48:42;;;;;;;2.95;1.90;;;;;;;26.29;48.10;100448.91;5132071;27;20368;-75
2023/07/15 09:51:12;;;;;;;2.25;1.88;;;;;;;26.07;48.60;100435.06;5128032;27;20019;-75
2023/07/15 09:53:48;;;;;;;3.17;1.77;;;;;;;25.88;49.78;100436.06;5109735;27;20244;-76
2023/07/15 09:56:13;;;;;;;2.67;1.80;;;;;;;25.75;50.20;100443.25;5105820;27;20033;-76
2023/07/15 09:58:39;;;;;;;3.00;2.00;;;;;;;25.64;50.33;100434.41;5111205;27;20023;-75
2023/07/15 10:01:10;;;;;;;4.45;2.05;;;;;;;25.47;50.50;100429.50;5123559;27;20031;-74
2023/07/15 10:03:41;;;;;;;3.58;2.10;;;;;;;25.55;49.10;100420.53;5092254;28;20024;-75
2023/07/15 10:06:06;;;;;;;4.18;2.10;;;;;;;25.49;49.85;100416.25;5123092;27;20367;-75
2023/07/15 10:08:31;;;;;;;4.55;2.20;;;;;;;25.53;50.09;100414.50;5096578;27;20034;-74
2023/07/15 10:10:57;;;;;;;2.70;1.83;;;;;;;25.80;50.28;100415.56;5130324;27;20047;-74
2023/07/15 10:13:22;;;;;;;5.28;2.10;;;;;;;25.87;51.68;100415.94;5111287;27;20482;-75
2023/07/15 10:15:48;;;;;;;5.05;2.17;;;;;;;26.11;51.22;100412.13;5131553;27;20022;-75
2023/07/15 10:18:16;;;;;;;6.68;2.20;;;;;;;26.53;49.59;100408.31;5112335;27;20031;-75
2023/07/15 10:20:42;;;;;;;3.40;2.20;;;;;;;27.08;48.99;100412.66;5130613;27;20027;-74
2023/07/15 10:23:09;;;;;;;3.92;2.00;;;;;;;27.49;47.56;100399.63;5130925;27;20031;-74
2023/07/15 10:25:34;;;;;;;2.28;1.90;;;;;;;27.92;46.31;100400.78;5131154;27;20030;-74
2023/07/15 10:28:12;;;;;;;4.72;2.30;;;;;;;28.50;43.88;100398.59;5111787;27;20034;-74
2023/07/15 10:30:39;;;;;;;4.07;2.08;;;;;;;28.77;44.07;100391.00;5125998;27;20058;-75
2023/07/15 10:33:10;;;;;;;3.65;1.95;;;;;;;28.96;43.12;100384.25;5114563;27;20031;-75
2023/07/15 10:35:41;;;;;;;2.53;1.80;;;;;;;29.53;41.91;100390.47;5132658;27;20110;-75
2023/07/15 10:38:26;;;;;;;3.13;1.80;;;;;;;30.72;39.87;100382.81;5129879;27;20027;-73
2023/07/15 10:40:52;;;;;;;4.43;1.83;;;;;;;31.95;36.17;100383.84;5124725;27;20021;-75
2023/07/15 10:43:19;;;;;;;3.92;1.80;;;;;;;31.57;36.92;100400.63;5122935;27;20453;-74
2023/07/15 10:46:08;;;;;;;5.15;2.22;;;;;;;31.09;36.56;100391.16;5122518;27;20027;-75
2023/07/15 10:48:33;;;;;;;3.50;2.20;;;;;;;30.79;37.65;100381.13;5130611;27;20097;-74
2023/07/15 10:51:19;;;;;;;5.32;1.90;;;;;;;30.20;38.10;100382.22;5128767;27;20459;-74
2023/07/15 10:53:44;;;;;;;3.45;2.00;;;;;;;29.48;39.84;100372.88;5087417;27;20035;-75
2023/07/15 10:56:11;;;;;;;5.93;2.13;;;;;;;30.25;38.29;100373.69;5118038;27;20084;-75
2023/07/15 10:58:36;;;;;;;2.20;1.70;;;;;;;31.03;36.57;100381.44;5125606;27;20075;-74
2023/07/15 11:01:03;;;;;;;2.47;1.88;;;;;;;31.68;36.07;100363.97;5126740;27;20027;-75
2023/07/15 11:03:30;;;;;;;3.53;1.90;;;;;;;32.60;33.68;100372.44;5130301;27;20023;-75
2023/07/15 11:05:58;;;;;;;2.85;1.90;;;;;;;32.55;34.14;100375.53;5116715;27;20050;-75
2023/07/15 11:08:24;;;;;;;2.97;1.80;;;;;;;32.05;34.66;100381.34;5123992;27;20047;-75
2023/07/15 11:10:49;;;;;;;4.88;1.80;;;;;;;30.92;36.20;100376.34;5126107;27;20039;-75
2023/07/15 11:13:17;;;;;;;9.23;2.00;;;;;;;29.82;38.68;100377.69;5111376;27;20080;-74
2023/07/15 11:15:45;;;;;;;2.38;2.10;;;;;;;29.36;39.92;100377.56;5127446;27;20195;-74
2023/07/15 11:18:20;;;;;;;3.40;1.98;;;;;;;29.95;39.39;100355.22;5130111;27;20023;-74
2023/07/15 11:20:47;;;;;;;2.70;1.88;;;;;;;30.50;38.03;100363.44;5126962;27;20030;-75
2023/07/15 11:23:13;;;;;;;3.47;2.00;;;;;;;30.29;38.18;100363.53;5124537;27;20023;-77
2023/07/15 11:25:41;;;;;;;4.22;1.85;;;;;;;30.29;38.03;100351.59;5128688;27;20501;-76